Youngstown Warren Regional Airport
KYNG : now visible

Airfield :











YOU CAN JOIN US ON...

 
LOGIN :

Register | Disclaimer

   EN    FR    IT 

 









Legend :    VFR   Marginal VFR   IFR   Intensive IFR   Very Intensive IFR
Visi :
Ceiling :
>= 8 km
>= 3000ft
5 to 8 km
1000 to 3000 ft
1500m to 5 km
500 to 1000 ft
800 to 1500m
200 to 500 ft
< 800m
< 200 ft
Symbols :   Thunderstorms  Fog  Heavy snow  Heavy precipitations  Wind > 20 kt







- Airport Elevation : 1192 ft
- IATA code : YNG


KYNG - Youngstown Warren Regional

CURRENT METAR :
  • 160717Z 16009KT 6SM -RA BR FEW011 BKN023 OVC037 18/17 A2981 RMK AO2 P0002 T01830172

EXPIRED METARs :
  • 160651Z 12007KT 4SM -RA BR FEW006 SCT013 OVC031 18/17 A2982 RMK AO2 SLP090 P0032 T01830172
  • 160631Z 11005KT 3SM -RA BR FEW004 SCT015 OVC034 18/17 A2983 RMK AO2 P0019 T01830172
  • 160551Z 16007KT 2SM +RA BR SCT003 BKN015 OVC028 18/17 A2986 RMK AO2 SLP104 P0029 60102 T01830172 10183 20178 58016
  • 160533Z 27003KT 2 1/2SM RA BR SCT004 BKN016 OVC030 18/17 A2988 RMK AO2 P0021 T01830172
  • 160451Z 21004KT 3SM RA BR SCT006 BKN011 OVC020 18/17 A2989 RMK AO2 SLP115 P0039 T01830172 402280144
  • 160439Z 22004KT 3SM -RA BR FEW008 SCT014 OVC024 18/17 A2989 RMK AO2 P0035 T01830172

TAF KYNG
Valid from the 16 at 06:00 until the 17 at 06:00 UTC


160543Z 1606/1706 VRB03KT 3SM SHRA SCT004 OVC015
FM160900 17006KT P6SM VCSH BKN008 OVC015
FM161500 26006KT P6SM OVC008
FM161600 27006KT 5SM -SHRA OVC012
FM162300 VRB02KT P6SM BKN020
KZOB FIR / North America



MET'MAP, your aeronautical weather chart ! - Copyright ORBIFLY December 2007 - Disclaimer

ORBIFLY MET'MAP TEAM :

Programming & Development : Alexandra Zaïnal
Concept & Development : Baudouin d'Aumeries
Co-Development & Prog : Marc-Olivier Méhu
Technical & hardware support : Manuel Goepfert

Contact : metmap@orbifly.com




SOURCES & CREDITS :

   NOAA       Earth
Advisory